Time;durP1;ratioP1;P1;durP2;ratioP2;P2;SDS_P1;SDS_P2;PMS_P1;PMS_P2;Temp;Humidity;BMP_temperature;BMP_pressure;BME280_temperature;BME280_humidity;BME280_pressure;Samples;Min_cycle;Max_cycle;Signal;HPM_P1;HPM_P2
2021/06/02 00:01:56;;;;;;;3.98;3.55;;;;;;;16.63;58.13;101046.66;1419876;100;21094;-48
2021/06/02 00:04:26;;;;;;;4.45;3.75;;;;;;;16.57;58.36;101042.98;1477055;92;21257;-48
2021/06/02 00:07:00;;;;;;;4.35;3.95;;;;;;;16.56;58.81;101041.25;1558605;91;21068;-49
2021/06/02 00:09:28;;;;;;;4.15;3.85;;;;;;;16.53;59.02;101034.80;1613611;89;21493;-48
2021/06/02 00:11:58;;;;;;;4.67;4.15;;;;;;;16.51;59.08;101039.27;1686619;84;21513;-49
2021/06/02 00:14:26;;;;;;;5.42;3.92;;;;;;;16.49;59.15;101036.70;1687685;84;21540;-49
2021/06/02 00:16:54;;;;;;;6.28;4.30;;;;;;;16.46;59.46;101035.95;1686910;84;21600;-48
2021/06/02 00:19:23;;;;;;;4.70;4.30;;;;;;;16.42;59.17;101040.94;1686308;84;21050;-48
2021/06/02 00:21:50;;;;;;;4.90;4.40;;;;;;;16.36;59.63;101039.43;1680732;84;21577;-48
2021/06/02 00:24:19;;;;;;;4.17;3.77;;;;;;;16.34;59.74;101044.34;1687067;84;21050;-49
2021/06/02 00:26:46;;;;;;;4.85;4.28;;;;;;;16.35;59.69;101038.16;1685649;84;21029;-49
2021/06/02 00:29:13;;;;;;;4.12;3.83;;;;;;;16.36;59.55;101034.63;1666048;84;21018;-49
2021/06/02 00:31:45;;;;;;;5.10;3.90;;;;;;;16.33;59.29;101032.11;1689448;84;21042;-48
2021/06/02 00:34:12;;;;;;;5.20;3.87;;;;;;;16.30;59.52;101039.20;1611900;87;21125;-48
2021/06/02 00:36:42;;;;;;;4.67;4.08;;;;;;;16.30;59.73;101045.77;1605624;87;21077;-48
2021/06/02 00:39:09;;;;;;;5.35;4.17;;;;;;;16.29;59.47;101038.81;1566405;90;21047;-48
2021/06/02 00:41:38;;;;;;;5.03;4.20;;;;;;;16.28;59.67;101037.55;1566328;90;21510;-48
2021/06/02 00:44:09;;;;;;;6.83;4.83;;;;;;;16.27;59.58;101035.85;1566603;90;21550;-48
2021/06/02 00:46:39;;;;;;;;;;;;;;;16.23;59.42;101032.50;1538136;92;21225;-49
2021/06/02 00:49:09;;;;;;;8.20;4.50;;;;;;;16.24;59.61;101038.58;1511838;95;20123;-48
2021/06/02 00:51:36;;;;;;;4.92;4.20;;;;;;;16.24;59.78;101031.57;1566591;90;21092;-49
2021/06/02 00:54:06;;;;;;;5.97;4.80;;;;;;;16.22;59.54;101032.54;1566544;90;21103;-48
2021/06/02 00:56:58;;;;;;;4.85;4.45;;;;;;;16.20;59.37;101022.11;1566745;90;21079;-47
2021/06/02 00:59:34;;;;;;;4.70;4.30;;;;;;;16.18;59.49;101020.45;1554910;90;21067;-48
2021/06/02 01:02:02;;;;;;;6.60;4.85;;;;;;;16.18;59.84;101025.25;1541210;93;21062;-49
2021/06/02 01:04:30;;;;;;;4.30;3.90;;;;;;;16.20;59.20;101010.30;1571063;91;21149;-49
2021/06/02 01:06:57;;;;;;;4.42;4.03;;;;;;;16.19;59.29;101011.23;1576141;91;21132;-49
2021/06/02 01:09:25;;;;;;;4.20;3.90;;;;;;;16.19;59.66;101010.37;1548517;93;21097;-48
2021/06/02 01:11:53;;;;;;;6.45;4.08;;;;;;;16.20;59.25;101010.30;1548271;91;21061;-49
2021/06/02 01:14:22;;;;;;;5.03;4.53;;;;;;;16.25;59.68;101014.91;1548490;93;21088;-48
2021/06/02 01:16:50;;;;;;;4.47;4.08;;;;;;;16.28;59.42;101005.58;1548124;93;21109;-49
2021/06/02 01:19:22;;;;;;;4.75;4.35;;;;;;;16.28;59.19;100999.02;1548594;93;21100;-49
2021/06/02 01:22:00;;;;;;;4.37;4.08;;;;;;;16.29;59.17;101008.62;1531999;94;21096;-49
2021/06/02 01:24:28;;;;;;;4.33;3.87;;;;;;;16.28;59.06;101001.64;1571568;91;21133;-48
2021/06/02 01:26:57;;;;;;;8.80;4.92;;;;;;;16.30;59.22;100999.81;1571312;91;21570;-48
2021/06/02 01:29:24;;;;;;;5.75;4.35;;;;;;;16.33;59.27;100996.66;1571348;91;21047;-49
2021/06/02 01:32:44;;;;;;;5.70;4.08;;;;;;;16.35;58.58;100978.61;1565959;91;21055;-49
2021/06/02 01:35:35;;;;;;;4.17;3.80;;;;;;;16.34;58.37;100980.86;1546980;93;21129;-48
2021/06/02 01:38:25;;;;;;;7.83;4.62;;;;;;;16.31;58.85;100984.91;1578392;90;21051;-48
2021/06/02 01:41:14;;;;;;;6.75;3.90;;;;;;;16.33;58.37;100988.78;1624570;88;21089;-48
2021/06/02 01:44:31;;;;;;;7.12;3.98;;;;;;;16.31;58.38;100979.66;1619574;88;21052;-48
2021/06/02 01:47:22;;;;;;;5.25;4.08;;;;;;;16.31;59.02;100977.03;1624662;88;21097;-48
2021/06/02 01:50:09;;;;;;;5.90;4.03;;;;;;;16.34;58.74;100961.17;1616546;89;21585;-48
2021/06/02 01:53:08;;;;;;;4.30;3.90;;;;;;;16.38;58.58;100975.02;1611898;89;21061;-48
2021/06/02 01:56:26;;;;;;;4.67;3.37;;;;;;;16.39;58.90;100971.45;1614922;89;21108;-48
2021/06/02 01:59:24;;;;;;;4.28;3.80;;;;;;;16.38;59.10;100967.13;1612110;89;21097;-48
2021/06/02 02:02:21;;;;;;;5.28;3.70;;;;;;;16.39;59.21;100981.95;1607309;89;21076;-48
2021/06/02 02:05:16;;;;;;;4.70;4.08;;;;;;;16.37;59.17;100981.17;1588774;89;21077;-48
2021/06/02 02:07:54;;;;;;;4.70;4.15;;;;;;;16.35;59.36;100987.80;1602437;89;21560;-48
2021/06/02 02:10:42;;;;;;;5.05;3.83;;;;;;;16.29;59.30;100983.67;1606438;89;21517;-48
2021/06/02 02:13:40;;;;;;;5.67;4.15;;;;;;;16.22;59.90;100988.77;1609541;89;21665;-48
2021/06/02 02:16:35;;;;;;;4.42;4.03;;;;;;;16.19;60.55;100987.59;1602224;89;21089;-48
2021/06/02 02:19:44;;;;;;;6.70;4.12;;;;;;;16.18;60.26;100995.06;1629814;87;21073;-48
2021/06/02 02:23:08;;;;;;;4.03;3.72;;;;;;;16.16;60.26;100994.27;1615028;89;21596;-48
2021/06/02 02:25:58;;;;;;;5.00;3.62;;;;;;;16.14;60.16;100982.98;1606544;89;21115;-48
2021/06/02 02:28:36;;;;;;;4.30;4.00;;;;;;;16.14;60.36;100985.61;1702471;83;21571;-48
2021/06/02 02:32:02;;;;;;;5.17;4.35;;;;;;;16.17;60.09;101000.38;1717911;83;21051;-48
2021/06/02 02:34:43;;;;;;;4.20;3.80;;;;;;;16.16;60.11;100999.52;1723120;83;21538;-48
2021/06/02 02:37:52;;;;;;;6.75;4.03;;;;;;;16.17;59.58;101002.56;1701264;84;21056;-48
2021/06/02 02:40:50;;;;;;;4.30;3.90;;;;;;;16.19;59.08;101010.37;1701629;84;21596;-48
2021/06/02 02:43:58;;;;;;;3.77;3.47;;;;;;;16.21;58.96;101009.39;1701711;84;21053;-49
2021/06/02 02:46:38;;;;;;;3.45;3.15;;;;;;;16.25;58.94;101007.03;1696227;84;21108;-48
2021/06/02 02:49:27;;;;;;;3.30;3.00;;;;;;;16.29;58.95;101015.19;1691708;84;21069;-48
2021/06/02 02:52:37;;;;;;;3.25;2.95;;;;;;;16.32;58.68;101007.64;1695878;84;21073;-47
2021/06/02 02:55:21;;;;;;;4.03;3.33;;;;;;;16.34;58.74;101006.27;1690518;84;21041;-48
2021/06/02 02:58:10;;;;;;;3.80;2.98;;;;;;;16.34;58.41;101005.81;1664848;85;21022;-48
2021/06/02 03:01:10;;;;;;;3.55;3.00;;;;;;;16.36;58.46;101003.97;1642976;86;21082;-48
2021/06/02 03:04:05;;;;;;;3.98;3.33;;;;;;;16.38;58.35;101001.28;1644158;86;21641;-49
2021/06/02 03:06:39;;;;;;;5.08;3.27;;;;;;;16.35;58.42;100997.00;1641291;86;21038;-48
2021/06/02 03:09:50;;;;;;;4.40;2.95;;;;;;;16.35;59.29;100996.14;1643721;86;21057;-48
2021/06/02 03:12:48;;;;;;;4.35;3.25;;;;;;;16.35;59.49;100996.14;1647609;86;21062;-48
2021/06/02 03:15:45;;;;;;;4.95;3.08;;;;;;;16.33;59.61;100993.58;1636782;86;21079;-48
2021/06/02 03:18:41;;;;;;;3.37;2.90;;;;;;;16.25;59.64;101000.47;1631082;87;21019;-49
2021/06/02 03:21:15;;;;;;;4.05;3.10;;;;;;;16.18;59.64;101002.94;1634467;87;21047;-48
2021/06/02 03:24:09;;;;;;;5.17;3.00;;;;;;;16.15;60.06;101004.39;1639023;87;21511;-48
2021/06/02 03:26:40;;;;;;;6.20;2.85;;;;;;;16.15;60.15;101004.39;1612052;87;21086;-48
2021/06/02 03:29:22;;;;;;;3.35;3.02;;;;;;;16.16;60.42;100996.90;1639723;87;21619;-48
2021/06/02 03:32:09;;;;;;;5.95;3.05;;;;;;;16.17;60.40;100998.63;1636549;87;21054;-48
2021/06/02 03:35:05;;;;;;;3.80;3.45;;;;;;;16.15;60.29;101003.08;1638626;87;21082;-48
2021/06/02 03:37:52;;;;;;;4.72;3.20;;;;;;;16.14;60.54;100998.73;1638646;87;21031;-48
2021/06/02 03:40:48;;;;;;;4.33;3.58;;;;;;;16.14;60.77;100998.73;1640642;87;21078;-48
2021/06/02 03:43:25;;;;;;;4.78;3.85;;;;;;;16.11;60.52;100998.88;1634339;87;21015;-48
2021/06/02 03:46:01;;;;;;;4.53;3.75;;;;;;;16.08;60.77;100998.12;1636576;87;21078;-48
2021/06/02 03:49:14;;;;;;;5.55;3.95;;;;;;;16.04;61.22;100992.15;1605237;89;21063;-48
2021/06/02 03:52:05;;;;;;;4.25;3.85;;;;;;;16.05;61.53;100991.22;1644609;87;21066;-48
2021/06/02 03:54:38;;;;;;;4.47;4.08;;;;;;;16.06;61.46;100998.19;1690853;82;21010;-48
2021/06/02 03:57:33;;;;;;;4.33;3.92;;;;;;;16.07;60.89;100991.17;1736941;82;21090;-48
2021/06/02 04:00:15;;;;;;;5.60;3.87;;;;;;;16.03;61.33;100993.05;1743841;80;21121;-47
2021/06/02 04:03:08;;;;;;;4.13;3.73;;;;;;;16.04;61.39;100997.40;1704111;82;21109;-48
2021/06/02 04:06:17;;;;;;;6.65;3.92;;;;;;;16.04;61.46;100989.52;1726621;82;21068;-48
2021/06/02 04:09:13;;;;;;;4.45;3.92;;;;;;;16.07;61.59;100992.01;1659593;85;21025;-48
2021/06/02 04:11:50;;;;;;;4.28;3.87;;;;;;;16.23;61.06;100993.13;1659216;85;21070;-48
2021/06/02 04:14:35;;;;;;;4.35;3.67;;;;;;;16.19;60.97;100996.79;1642250;86;21062;-49
2021/06/02 04:17:02;;;;;;;4.33;3.72;;;;;;;16.20;60.75;100993.23;1610025;87;21099;-48
2021/06/02 04:19:33;;;;;;;4.10;3.70;;;;;;;16.20;60.75;100993.23;1616701;87;21613;-48
2021/06/02 04:22:07;;;;;;;6.80;3.90;;;;;;;16.19;60.44;100990.23;1617703;87;21038;-48
2021/06/02 04:24:37;;;;;;;4.05;3.65;;;;;;;16.19;60.41;100986.28;1616871;87;21054;-48
2021/06/02 04:27:05;;;;;;;4.47;3.90;;;;;;;16.25;60.59;100980.78;1616417;87;21054;-48
2021/06/02 04:29:32;;;;;;;5.50;4.10;;;;;;;16.26;60.59;100992.98;1614117;87;21026;-47
2021/06/02 04:32:06;;;;;;;5.17;3.87;;;;;;;16.25;60.64;100989.97;1619285;87;21586;-47
2021/06/02 04:34:34;;;;;;;4.53;3.83;;;;;;;16.26;61.14;100992.98;1614149;87;21069;-48
2021/06/02 04:37:04;;;;;;;5.08;4.08;;;;;;;16.25;61.02;100982.09;1612564;87;21144;-48
2021/06/02 04:39:31;;;;;;;4.08;3.77;;;;;;;16.25;61.04;100972.91;1622478;87;21014;-48
2021/06/02 04:42:00;;;;;;;5.15;4.40;;;;;;;16.26;61.16;100975.91;1612332;88;21066;-47
2021/06/02 04:44:29;;;;;;;6.08;4.60;;;;;;;16.34;61.34;100987.88;1612087;89;21098;-48
2021/06/02 04:46:57;;;;;;;4.55;4.25;;;;;;;16.34;61.35;100974.75;1612248;88;21006;-50
2021/06/02 04:49:47;;;;;;;4.17;3.77;;;;;;;16.35;61.54;100985.63;1612068;87;21247;-48
2021/06/02 04:53:10;;;;;;;4.62;3.65;;;;;;;16.31;61.78;100990.16;1636677;87;21085;-47
2021/06/02 04:56:17;;;;;;;3.27;2.98;;;;;;;16.34;61.80;100986.56;1656352;86;21106;-48
2021/06/02 04:59:15;;;;;;;3.80;3.45;;;;;;;16.39;61.52;100992.46;1588665;88;21134;-48
2021/06/02 05:02:27;;;;;;;3.55;3.25;;;;;;;16.39;61.30;100986.76;1619514;88;21070;-48
2021/06/02 05:05:20;;;;;;;3.42;3.12;;;;;;;16.35;61.26;100974.67;1592107;89;21568;-48
2021/06/02 05:08:42;;;;;;;3.58;3.27;;;;;;;16.31;60.94;100977.03;1536115;93;21329;-48
2021/06/02 05:11:45;;;;;;;4.92;3.75;;;;;;;16.32;61.36;100975.27;1539989;92;21059;-47
2021/06/02 05:14:37;;;;;;;3.37;3.08;;;;;;;16.36;61.17;100980.34;1550775;91;21086;-48
2021/06/02 05:17:46;;;;;;;4.15;3.75;;;;;;;16.40;60.99;100977.11;1572954;90;21093;-48
2021/06/02 05:23:42;;;;;;;3.22;2.92;;;;;;;16.48;60.29;100976.33;1575818;90;21093;-49
2021/06/02 05:26:56;;;;;;;2.72;2.50;;;;;;;16.45;60.67;100972.05;1570913;90;21090;-49
2021/06/02 05:29:39;;;;;;;3.33;3.12;;;;;;;16.47;60.52;100974.61;1576024;90;21202;-48
2021/06/02 05:32:34;;;;;;;4.30;2.90;;;;;;;16.48;59.94;100972.39;1535539;93;21566;-49
2021/06/02 05:35:29;;;;;;;4.87;3.33;;;;;;;16.50;60.14;100977.16;1561532;90;21073;-48
2021/06/02 05:38:33;;;;;;;2.40;2.25;;;;;;;16.49;60.54;100980.64;1571333;91;21063;-48
2021/06/02 05:41:41;;;;;;;4.45;2.80;;;;;;;16.51;60.08;100974.91;1587083;88;21078;-48
2021/06/02 05:44:32;;;;;;;2.90;2.58;;;;;;;16.45;60.24;100976.45;1576344;91;21300;-48
2021/06/02 05:47:50;;;;;;;2.80;2.60;;;;;;;16.55;60.02;100979.14;1579963;90;21653;-48
2021/06/02 05:50:41;;;;;;;2.60;2.40;;;;;;;16.61;59.86;100976.25;1616616;88;21036;-48
2021/06/02 05:54:05;;;;;;;3.62;2.70;;;;;;;16.62;59.46;100983.19;1601195;89;21050;-49
2021/06/02 05:57:22;;;;;;;6.05;2.52;;;;;;;16.62;59.59;100970.92;1599137;89;21629;-48
2021/06/02 06:00:24;;;;;;;3.40;2.87;;;;;;;16.63;59.14;100977.03;1597963;89;21640;-48
2021/06/02 06:03:46;;;;;;;3.52;2.90;;;;;;;16.64;59.44;100991.86;1591315;90;21066;-48
2021/06/02 06:06:43;;;;;;;2.37;1.98;;;;;;;16.65;59.65;100987.84;1591491;90;21109;-49
2021/06/02 06:09:44;;;;;;;3.08;2.00;;;;;;;16.66;59.51;100991.34;1598753;89;21088;-50
2021/06/02 06:12:59;;;;;;;2.92;2.60;;;;;;;16.66;59.56;100991.34;1611595;89;21114;-49
2021/06/02 06:15:50;;;;;;;6.97;2.10;;;;;;;16.67;59.87;100994.38;1611947;89;21581;-49
2021/06/02 06:18:31;;;;;;;1.90;1.80;;;;;;;16.77;59.69;100997.00;1530043;94;21585;-48
2021/06/02 06:21:43;;;;;;;3.52;1.82;;;;;;;16.77;59.74;100995.23;1528119;94;21090;-48
2021/06/02 06:24:17;;;;;;;4.03;2.35;;;;;;;16.80;59.51;101005.59;1527417;94;21110;-48
2021/06/02 06:27:11;;;;;;;2.62;2.37;;;;;;;16.82;59.97;101010.77;1525983;91;21110;-48
2021/06/02 06:29:52;;;;;;;1.82;1.60;;;;;;;16.82;59.96;101001.12;1485682;96;21167;-48
2021/06/02 06:32:19;;;;;;;2.27;1.85;;;;;;;16.86;59.72;101000.52;1502699;93;21612;-49
2021/06/02 06:34:47;;;;;;;1.75;1.65;;;;;;;16.83;59.79;101007.24;1528639;93;21150;-50
2021/06/02 06:37:13;;;;;;;3.05;2.00;;;;;;;16.86;59.76;101012.34;1477282;95;21146;-49
2021/06/02 06:39:55;;;;;;;2.22;1.92;;;;;;;16.87;59.43;101012.30;1508510;95;21601;-49
2021/06/02 06:42:27;;;;;;;4.45;1.72;;;;;;;16.91;59.54;101011.70;1512055;94;21646;-50
2021/06/02 06:45:00;;;;;;;1.35;1.25;;;;;;;16.91;59.77;101007.76;1512507;94;21106;-50
2021/06/02 06:47:27;;;;;;;1.87;1.52;;;;;;;16.81;60.03;101019.59;1512479;94;21139;-48
2021/06/02 06:49:55;;;;;;;2.47;1.67;;;;;;;16.80;60.12;101020.05;1487718;96;21112;-49
2021/06/02 06:52:24;;;;;;;1.52;1.12;;;;;;;16.88;60.28;101025.83;1510518;94;21190;-52
2021/06/02 06:54:55;;;;;;;1.30;1.12;;;;;;;16.95;59.91;101025.10;1482853;96;21097;-47
2021/06/02 06:57:21;;;;;;;1.20;1.10;;;;;;;16.97;60.00;101028.06;1475219;96;21169;-50
2021/06/02 06:59:50;;;;;;;1.65;1.55;;;;;;;16.99;59.83;101026.67;1462296;96;21656;-48
2021/06/02 07:02:17;;;;;;;2.27;1.30;;;;;;;16.91;60.29;101028.78;1496288;94;21183;-50
2021/06/02 07:04:43;;;;;;;1.55;1.10;;;;;;;16.96;60.50;101016.31;1496147;96;21099;-49
2021/06/02 07:07:11;;;;;;;2.42;1.37;;;;;;;16.98;60.52;101019.73;1497360;95;21177;-50
2021/06/02 07:09:38;;;;;;;1.55;0.78;;;;;;;17.00;60.25;101019.20;1504665;92;21119;-48
2021/06/02 07:12:06;;;;;;;0.93;0.90;;;;;;;17.00;60.07;101013.94;1506607;94;21586;-49
2021/06/02 07:14:36;;;;;;;0.80;0.80;;;;;;;16.99;60.42;101013.53;1524855;93;21269;-49
2021/06/02 07:17:05;;;;;;;1.05;0.95;;;;;;;16.98;60.29;101013.16;1525086;94;21107;-49
2021/06/02 07:19:33;;;;;;;1.35;1.25;;;;;;;16.93;60.58;101018.61;1525181;94;21120;-49
2021/06/02 07:22:03;;;;;;;1.20;1.10;;;;;;;16.92;60.94;101013.39;1524883;94;21591;-49
2021/06/02 07:24:30;;;;;;;0.80;0.80;;;;;;;16.92;61.11;101017.33;1568276;91;21623;-49
2021/06/02 07:26:57;;;;;;;0.88;0.88;;;;;;;16.96;61.13;101017.14;1633975;87;21019;-49
2021/06/02 07:29:25;;;;;;;1.20;1.10;;;;;;;17.02;61.08;101016.05;1611955;87;21642;-49
2021/06/02 07:31:52;;;;;;;1.25;1.10;;;;;;;17.05;60.86;101014.13;1634018;87;21062;-50
2021/06/02 07:34:20;;;;;;;1.87;1.10;;;;;;;17.04;60.76;101023.41;1602818;89;21645;-50
2021/06/02 07:36:50;;;;;;;1.32;0.90;;;;;;;17.00;60.99;101025.77;1632900;87;21572;-50
2021/06/02 07:39:17;;;;;;;1.70;1.00;;;;;;;17.01;60.89;101020.44;1594504;89;21612;-48
2021/06/02 07:41:45;;;;;;;0.62;0.62;;;;;;;16.95;61.37;101025.10;1619330;88;21099;-47
2021/06/02 07:44:12;;;;;;;1.82;1.20;;;;;;;16.93;61.56;101013.80;1619025;88;21107;-49
2021/06/02 07:46:39;;;;;;;1.10;1.00;;;;;;;17.01;61.44;101022.20;1626756;88;21091;-51
2021/06/02 07:49:06;;;;;;;2.98;2.67;;;;;;;17.05;61.51;101017.20;1616224;88;21239;-49
2021/06/02 07:51:34;;;;;;;1.85;1.75;;;;;;;17.05;61.28;101019.38;1627450;88;21094;-50
2021/06/02 07:54:02;;;;;;;0.90;0.90;;;;;;;17.07;61.41;101019.30;1667804;82;21061;-49
2021/06/02 07:56:31;;;;;;;1.45;0.88;;;;;;;17.08;61.51;101021.03;1736771;82;21023;-49
2021/06/02 07:58:57;;;;;;;2.70;1.07;;;;;;;17.14;61.74;101022.52;1737166;82;21051;-51
2021/06/02 08:01:25;;;;;;;1.87;1.05;;;;;;;17.17;61.74;101024.55;1779498;80;21070;-51
2021/06/02 08:03:51;;;;;;;1.67;0.95;;;;;;;17.18;61.61;101024.95;1774727;81;21038;-50
2021/06/02 08:06:18;;;;;;;1.10;1.00;;;;;;;17.16;61.74;101026.80;1764848;81;21027;-50
2021/06/02 08:08:45;;;;;;;1.12;0.90;;;;;;;17.17;61.57;101019.73;1766014;81;21066;-47
2021/06/02 08:11:13;;;;;;;1.37;1.10;;;;;;;17.15;61.67;101011.92;1772541;81;21085;-47
2021/06/02 08:13:40;;;;;;;2.35;0.75;;;;;;;17.09;61.98;101025.34;1764302;81;21015;-50
2021/06/02 08:16:09;;;;;;;1.25;1.00;;;;;;;17.10;61.92;101019.19;1767541;81;21022;-48
2021/06/02 08:18:36;;;;;;;1.25;0.90;;;;;;;17.14;61.91;101012.00;1754894;81;21031;-48
2021/06/02 08:21:03;;;;;;;1.10;1.00;;;;;;;17.16;62.02;101012.79;1757293;81;21061;-48
2021/06/02 08:23:30;;;;;;;1.20;0.98;;;;;;;17.19;61.95;101016.13;1707305;84;20983;-48
2021/06/02 08:25:58;;;;;;;1.65;0.82;;;;;;;17.20;61.85;101011.27;1754899;80;21002;-49
2021/06/02 08:28:25;;;;;;;1.32;0.90;;;;;;;17.21;62.05;101022.17;1763370;81;21070;-49
2021/06/02 08:30:52;;;;;;;2.05;0.72;;;;;;;17.23;61.97;101020.33;1766083;81;21012;-47
2021/06/02 08:33:19;;;;;;;0.70;0.70;;;;;;;17.23;61.87;101024.27;1765666;81;21038;-47
2021/06/02 08:35:45;;;;;;;0.80;0.80;;;;;;;17.26;61.47;101026.78;1716358;82;20980;-48
2021/06/02 08:38:13;;;;;;;1.40;1.02;;;;;;;17.23;61.60;101019.02;1773025;81;20963;-48
2021/06/02 08:40:40;;;;;;;5.03;4.30;;;;;;;17.22;61.37;101017.31;1759939;81;21566;-47
2021/06/02 08:43:07;;;;;;;2.12;0.98;;;;;;;17.20;61.61;101035.39;1771375;81;21025;-48
2021/06/02 08:45:35;;;;;;;1.17;0.60;;;;;;;17.19;61.47;101029.27;1762597;81;21043;-48
2021/06/02 08:48:03;;;;;;;1.30;0.75;;;;;;;17.16;61.73;101022.85;1759438;81;21089;-48
2021/06/02 08:50:30;;;;;;;1.72;0.80;;;;;;;17.17;61.61;101031.12;1768422;81;20994;-49
2021/06/02 08:53:00;;;;;;;2.08;0.68;;;;;;;17.17;61.77;101027.63;1756813;81;20959;-48
2021/06/02 08:55:27;;;;;;;0.80;0.80;;;;;;;17.20;62.09;101030.14;1722145;82;21015;-48
2021/06/02 08:57:53;;;;;;;1.00;0.90;;;;;;;17.21;62.10;101024.80;1720629;82;20987;-48
2021/06/02 09:00:22;;;;;;;0.80;0.80;;;;;;;17.23;62.00;101025.58;1757589;81;21015;-48
2021/06/02 09:02:56;;;;;;;1.12;0.98;;;;;;;17.23;62.03;101022.95;1758659;81;21054;-50
2021/06/02 09:05:25;;;;;;;1.57;1.00;;;;;;;17.22;62.15;101026.52;1758923;81;21083;-48
2021/06/02 09:07:53;;;;;;;3.00;1.20;;;;;;;17.22;62.25;101026.52;1758464;81;21644;-48
2021/06/02 09:10:20;;;;;;;1.60;1.00;;;;;;;17.21;62.38;101031.38;1753847;80;21026;-48
2021/06/02 09:12:58;;;;;;;0.78;0.78;;;;;;;17.25;62.05;101034.26;1764689;81;21002;-49
2021/06/02 09:15:24;;;;;;;1.65;0.80;;;;;;;17.28;61.92;101034.14;1758852;81;21006;-48
2021/06/02 09:17:59;;;;;;;1.65;0.82;;;;;;;17.25;61.77;101026.37;1761998;81;21051;-47
2021/06/02 09:20:50;;;;;;;0.70;0.70;;;;;;;17.29;61.62;101025.80;1762018;81;20982;-49
2021/06/02 09:23:43;;;;;;;0.75;0.75;;;;;;;17.30;61.63;101021.77;1767574;81;21513;-49
2021/06/02 09:26:24;;;;;;;0.80;0.80;;;;;;;17.31;61.75;101027.41;1750290;81;21472;-48
2021/06/02 09:29:10;;;;;;;1.27;0.95;;;;;;;17.35;61.89;101029.46;1711459;83;21055;-48
2021/06/02 09:31:43;;;;;;;0.65;0.60;;;;;;;17.38;61.91;101035.42;1711323;83;21115;-48
2021/06/02 09:34:18;;;;;;;2.55;0.80;;;;;;;17.41;61.87;101035.30;1710871;83;21546;-48
2021/06/02 09:36:47;;;;;;;1.00;0.70;;;;;;;17.39;62.13;101035.83;1705155;82;20959;-48
2021/06/02 09:39:16;;;;;;;0.50;0.50;;;;;;;17.29;62.68;101030.56;1700851;83;21093;-49
2021/06/02 09:41:52;;;;;;;1.17;0.80;;;;;;;17.26;63.05;101046.50;1702452;83;21062;-49
2021/06/02 09:44:21;;;;;;;0.75;0.62;;;;;;;17.31;62.82;101049.77;1701429;84;21038;-49
2021/06/02 09:47:09;;;;;;;1.37;0.85;;;;;;;17.31;63.02;101041.05;1703853;84;21030;-48
2021/06/02 09:49:49;;;;;;;0.75;0.75;;;;;;;17.31;63.04;101039.24;1697597;83;21022;-49
2021/06/02 09:52:19;;;;;;;2.17;0.78;;;;;;;17.30;63.10;101057.28;1709666;83;21046;-49
2021/06/02 09:54:46;;;;;;;0.80;0.70;;;;;;;17.33;63.08;101051.86;1708094;83;21059;-48
2021/06/02 09:57:17;;;;;;;1.32;0.90;;;;;;;17.33;62.96;101045.29;1712055;83;21039;-49
2021/06/02 09:59:59;;;;;;;0.95;0.90;;;;;;;17.34;62.94;101057.53;1710796;83;20991;-49
2021/06/02 10:02:26;;;;;;;1.25;1.00;;;;;;;17.32;62.98;101050.17;1690000;84;20983;-48
2021/06/02 10:05:11;;;;;;;1.32;1.07;;;;;;;17.33;63.20;101058.44;1710576;82;21578;-48
2021/06/02 10:07:47;;;;;;;0.65;0.62;;;;;;;17.34;63.09;101057.53;1696534;84;21077;-49
2021/06/02 10:10:19;;;;;;;2.85;0.80;;;;;;;17.35;63.20;101055.28;1710610;83;21012;-49
2021/06/02 10:13:04;;;;;;;1.12;0.70;;;;;;;17.39;63.14;101054.25;1714903;82;21040;-50
2021/06/02 10:15:37;;;;;;;0.70;0.70;;;;;;;17.41;63.13;101049.77;1713849;82;21059;-48
2021/06/02 10:18:28;;;;;;;1.85;1.32;;;;;;;17.39;62.98;101059.52;1710398;83;21074;-46
2021/06/02 10:21:08;;;;;;;1.02;0.93;;;;;;;17.37;62.88;101060.01;1713545;82;21517;-48
2021/06/02 10:23:40;;;;;;;0.65;0.65;;;;;;;17.30;62.99;101063.85;1704999;84;21042;-48
2021/06/02 10:26:08;;;;;;;1.07;0.80;;;;;;;17.31;62.84;101072.13;1723605;82;21104;-48
2021/06/02 10:28:37;;;;;;;1.17;0.70;;;;;;;17.29;62.91;101063.93;1730188;82;20951;-48
2021/06/02 10:31:06;;;;;;;1.37;0.78;;;;;;;17.29;62.97;101071.82;1739497;82;21775;-49
2021/06/02 10:33:33;;;;;;;1.92;1.10;;;;;;;17.28;63.07;101076.22;1731010;82;21011;-51
2021/06/02 10:36:04;;;;;;;0.78;0.75;;;;;;;17.32;63.02;101079.55;1731315;82;21020;-48
2021/06/02 10:38:36;;;;;;;0.60;0.60;;;;;;;17.29;63.21;101081.03;1725397;81;21030;-49
2021/06/02 10:41:03;;;;;;;2.12;1.92;;;;;;;17.29;63.32;101083.17;1661956;83;21577;-49
2021/06/02 10:43:42;;;;;;;0.50;0.50;;;;;;;17.29;63.29;101091.55;1702943;83;21070;-48
2021/06/02 10:46:19;;;;;;;0.50;0.50;;;;;;;17.31;63.44;101089.22;1696085;83;21011;-49
2021/06/02 10:48:51;;;;;;;1.80;0.80;;;;;;;17.36;63.62;101098.23;1696140;83;21073;-49
2021/06/02 10:51:32;;;;;;;1.50;0.80;;;;;;;17.41;63.63;101090.55;1704918;84;21147;-48
2021/06/02 10:54:16;;;;;;;0.57;0.47;;;;;;;17.42;63.50;101099.27;1660205;86;21108;-48
2021/06/02 10:57:00;;;;;;;0.68;0.68;;;;;;;17.45;63.61;101094.75;1687978;84;21047;-48
2021/06/02 10:59:30;;;;;;;;;;;;;;;17.48;63.79;101099.86;1700326;83;21098;-48
2021/06/02 11:02:15;;;;;;;1.10;0.60;;;;;;;17.51;63.69;101094.50;1684343;84;20122;-48
2021/06/02 11:05:01;;;;;;;1.02;0.60;;;;;;;17.57;63.56;101094.23;1676501;84;21118;-49
2021/06/02 11:10:12;;;;;;;0.70;0.70;;;;;;;17.59;63.67;101102.91;1657240;86;21032;-51
2021/06/02 11:13:02;;;;;;;1.00;0.60;;;;;;;17.63;63.66;101105.80;1650077;86;21563;-48
2021/06/02 11:15:38;;;;;;;0.60;0.60;;;;;;;17.67;63.51;101098.15;1647133;86;21057;-50
2021/06/02 11:18:18;;;;;;;0.90;0.85;;;;;;;17.69;63.36;101102.88;1633170;86;21085;-50
2021/06/02 11:20:57;;;;;;;0.60;0.60;;;;;;;17.66;63.68;101106.95;1621224;86;21192;-50
2021/06/02 11:23:38;;;;;;;0.55;0.53;;;;;;;17.59;64.04;101108.17;1625182;86;21179;-50
2021/06/02 11:26:25;;;;;;;1.05;0.65;;;;;;;17.60;63.94;101112.49;1624203;86;21081;-50
2021/06/02 11:28:53;;;;;;;1.27;0.72;;;;;;;17.61;64.01;101115.53;1625967;86;21482;-49
2021/06/02 11:31:28;;;;;;;1.20;0.70;;;;;;;17.66;64.03;101119.28;1615830;86;21042;-50
2021/06/02 11:34:25;;;;;;;0.72;0.72;;;;;;;17.69;63.89;101116.04;1621206;86;21054;-50
2021/06/02 11:37:04;;;;;;;1.22;0.53;;;;;;;17.70;63.96;101124.31;1644499;85;21235;-49
2021/06/02 11:39:36;;;;;;;0.50;0.50;;;;;;;17.65;64.08;101126.31;1638334;86;21114;-49
2021/06/02 11:42:04;;;;;;;0.50;0.50;;;;;;;17.66;64.15;101120.11;1644631;86;21065;-49
2021/06/02 11:44:34;;;;;;;0.70;0.70;;;;;;;17.68;64.18;101123.53;1644719;86;21467;-49
2021/06/02 11:47:00;;;;;;;1.65;0.75;;;;;;;17.79;63.87;101119.96;1637635;86;20997;-47
2021/06/02 11:49:32;;;;;;;1.05;0.60;;;;;;;17.94;63.57;101121.49;1635076;86;21066;-49
2021/06/02 11:52:13;;;;;;;0.90;0.80;;;;;;;17.95;63.53;101121.41;1635105;86;21022;-49
2021/06/02 11:55:03;;;;;;;1.40;0.70;;;;;;;17.99;63.58;101116.88;1634777;86;21538;-49
2021/06/02 11:57:34;;;;;;;0.75;0.60;;;;;;;18.01;63.62;101115.86;1645885;86;20997;-48
2021/06/02 12:00:22;;;;;;;1.65;0.80;;;;;;;18.02;63.60;101114.95;1645062;86;21133;-49
2021/06/02 12:03:02;;;;;;;1.32;0.70;;;;;;;18.05;63.40;101119.23;1623594;88;21613;-48
2021/06/02 12:05:37;;;;;;;0.60;0.50;;;;;;;18.05;63.41;101112.64;1559546;92;21050;-49
2021/06/02 12:08:12;;;;;;;0.68;0.68;;;;;;;18.05;63.54;101120.09;1635687;88;21129;-49
2021/06/02 12:10:47;;;;;;;0.78;0.70;;;;;;;18.05;63.56;101117.91;1636854;88;21078;-48
2021/06/02 12:13:20;;;;;;;1.15;0.70;;;;;;;18.07;63.69;101110.80;1635886;88;21042;-50
2021/06/02 12:16:02;;;;;;;1.22;0.60;;;;;;;18.11;63.74;101107.95;1630013;88;21592;-51
2021/06/02 12:18:43;;;;;;;0.70;0.70;;;;;;;18.14;63.70;101111.73;1584645;90;21063;-49
2021/06/02 12:21:25;;;;;;;0.50;0.47;;;;;;;18.14;63.65;101117.01;1579941;90;21081;-49
2021/06/02 12:23:58;;;;;;;0.60;0.60;;;;;;;18.14;63.93;101109.11;1581020;90;21091;-49
2021/06/02 12:26:31;;;;;;;1.98;0.85;;;;;;;18.14;64.02;101110.88;1581815;90;21167;-48
2021/06/02 12:29:05;;;;;;;0.95;0.80;;;;;;;18.16;64.10;101115.61;1547574;92;21137;-49
2021/06/02 12:31:45;;;;;;;2.20;0.85;;;;;;;18.17;64.07;101114.70;1584348;90;21062;-49